sensor_id;sensor_type;location;lat;lon;timestamp;temperature;humidity
65291;SHT30;51893;59.754;10.110;2023-03-01T00:01:47;-1.12;73.38
65291;SHT30;51893;59.754;10.110;2023-03-01T00:04:17;-1.15;73.42
65291;SHT30;51893;59.754;10.110;2023-03-01T00:06:45;-1.15;73.62
65291;SHT30;51893;59.754;10.110;2023-03-01T00:09:14;-1.15;73.68
65291;SHT30;51893;59.754;10.110;2023-03-01T00:11:44;-1.10;73.70
65291;SHT30;51893;59.754;10.110;2023-03-01T00:14:13;-1.04;73.59
65291;SHT30;51893;59.754;10.110;2023-03-01T00:16:44;-0.99;73.44
65291;SHT30;51893;59.754;10.110;2023-03-01T00:19:16;-0.98;73.44
65291;SHT30;51893;59.754;10.110;2023-03-01T00:21:47;-1.00;73.51
65291;SHT30;51893;59.754;10.110;2023-03-01T00:24:16;-1.03;73.53
65291;SHT30;51893;59.754;10.110;2023-03-01T00:26:46;-1.06;73.63
65291;SHT30;51893;59.754;10.110;2023-03-01T00:29:14;-1.14;73.75
65291;SHT30;51893;59.754;10.110;2023-03-01T00:31:43;-1.17;73.90
65291;SHT30;51893;59.754;10.110;2023-03-01T00:34:11;-1.15;73.83
65291;SHT30;51893;59.754;10.110;2023-03-01T00:36:39;-1.15;73.90
65291;SHT30;51893;59.754;10.110;2023-03-01T00:39:12;-1.14;73.90
65291;SHT30;51893;59.754;10.110;2023-03-01T00:41:43;-1.16;74.05
65291;SHT30;51893;59.754;10.110;2023-03-01T00:44:11;-1.13;74.28
65291;SHT30;51893;59.754;10.110;2023-03-01T00:46:40;-1.09;74.18
65291;SHT30;51893;59.754;10.110;2023-03-01T00:49:08;-1.10;74.26
65291;SHT30;51893;59.754;10.110;2023-03-01T00:51:36;-1.09;74.34
65291;SHT30;51893;59.754;10.110;2023-03-01T00:54:04;-1.12;74.33
65291;SHT30;51893;59.754;10.110;2023-03-01T00:56:32;-1.15;74.28
65291;SHT30;51893;59.754;10.110;2023-03-01T00:59:01;-1.20;74.44
65291;SHT30;51893;59.754;10.110;2023-03-01T01:01:30;-1.24;74.68
65291;SHT30;51893;59.754;10.110;2023-03-01T01:04:03;-1.25;74.65
65291;SHT30;51893;59.754;10.110;2023-03-01T01:06:35;-1.21;74.63
65291;SHT30;51893;59.754;10.110;2023-03-01T01:09:10;-1.15;74.49
65291;SHT30;51893;59.754;10.110;2023-03-01T01:11:47;-1.11;74.30
65291;SHT30;51893;59.754;10.110;2023-03-01T01:14:20;-1.09;74.14
65291;SHT30;51893;59.754;10.110;2023-03-01T01:16:48;-1.10;73.99
65291;SHT30;51893;59.754;10.110;2023-03-01T01:19:17;-1.12;73.98
65291;SHT30;51893;59.754;10.110;2023-03-01T01:21:46;-1.16;74.03
65291;SHT30;51893;59.754;10.110;2023-03-01T01:24:16;-1.17;73.96
65291;SHT30;51893;59.754;10.110;2023-03-01T01:26:47;-1.19;73.96
65291;SHT30;51893;59.754;10.110;2023-03-01T01:29:15;-1.21;73.98
65291;SHT30;51893;59.754;10.110;2023-03-01T01:31:43;-1.17;73.93
65291;SHT30;51893;59.754;10.110;2023-03-01T01:34:15;-1.13;73.80
65291;SHT30;51893;59.754;10.110;2023-03-01T01:36:47;-1.10;73.80
65291;SHT30;51893;59.754;10.110;2023-03-01T01:39:17;-1.10;73.65
65291;SHT30;51893;59.754;10.110;2023-03-01T01:41:45;-1.17;73.69
65291;SHT30;51893;59.754;10.110;2023-03-01T01:46:43;-1.18;73.70
65291;SHT30;51893;59.754;10.110;2023-03-01T01:54:56;-1.32;73.99
65291;SHT30;51893;59.754;10.110;2023-03-01T01:57:41;-1.31;73.96
65291;SHT30;51893;59.754;10.110;2023-03-01T02:00:18;-1.33;73.96
65291;SHT30;51893;59.754;10.110;2023-03-01T02:02:55;-1.33;73.91
65291;SHT30;51893;59.754;10.110;2023-03-01T02:08:22;-1.34;73.86
65291;SHT30;51893;59.754;10.110;2023-03-01T02:10:55;-1.37;73.86
65291;SHT30;51893;59.754;10.110;2023-03-01T02:13:27;-1.41;74.01
65291;SHT30;51893;59.754;10.110;2023-03-01T02:15:55;-1.47;74.12
65291;SHT30;51893;59.754;10.110;2023-03-01T02:18:24;-1.50;74.17
65291;SHT30;51893;59.754;10.110;2023-03-01T02:23:54;-1.51;74.23
65291;SHT30;51893;59.754;10.110;2023-03-01T02:29:16;-1.53;74.09
65291;SHT30;51893;59.754;10.110;2023-03-01T02:31:44;-1.58;74.12
65291;SHT30;51893;59.754;10.110;2023-03-01T02:34:14;-1.64;74.30
65291;SHT30;51893;59.754;10.110;2023-03-01T02:36:50;-1.70;74.21
65291;SHT30;51893;59.754;10.110;2023-03-01T02:39:31;-1.75;74.29
65291;SHT30;51893;59.754;10.110;2023-03-01T02:42:11;-1.77;74.29
65291;SHT30;51893;59.754;10.110;2023-03-01T02:44:44;-1.84;74.47
65291;SHT30;51893;59.754;10.110;2023-03-01T02:47:12;-1.92;74.72
65291;SHT30;51893;59.754;10.110;2023-03-01T02:49:40;-1.92;74.65
65291;SHT30;51893;59.754;10.110;2023-03-01T02:55:11;-1.93;75.12
65291;SHT30;51893;59.754;10.110;2023-03-01T02:57:44;-1.92;75.24
65291;SHT30;51893;59.754;10.110;2023-03-01T03:00:40;-1.90;74.97
65291;SHT30;51893;59.754;10.110;2023-03-01T03:03:15;-1.87;74.85
65291;SHT30;51893;59.754;10.110;2023-03-01T03:05:48;-1.86;74.74
65291;SHT30;51893;59.754;10.110;2023-03-01T03:08:17;-1.83;74.70
65291;SHT30;51893;59.754;10.110;2023-03-01T03:10:51;-1.84;74.63
65291;SHT30;51893;59.754;10.110;2023-03-01T03:13:20;-1.84;74.49
65291;SHT30;51893;59.754;10.110;2023-03-01T03:15:50;-1.85;74.47
65291;SHT30;51893;59.754;10.110;2023-03-01T03:18:18;-1.86;74.43
65291;SHT30;51893;59.754;10.110;2023-03-01T03:20:46;-1.85;74.32
65291;SHT30;51893;59.754;10.110;2023-03-01T03:23:20;-1.87;74.43
65291;SHT30;51893;59.754;10.110;2023-03-01T03:25:49;-1.88;74.48
65291;SHT30;51893;59.754;10.110;2023-03-01T03:28:18;-1.89;74.39
65291;SHT30;51893;59.754;10.110;2023-03-01T03:30:46;-1.98;74.42
65291;SHT30;51893;59.754;10.110;2023-03-01T03:33:14;-2.06;74.61
65291;SHT30;51893;59.754;10.110;2023-03-01T03:35:43;-2.12;74.61
65291;SHT30;51893;59.754;10.110;2023-03-01T03:38:16;-2.17;74.79
65291;SHT30;51893;59.754;10.110;2023-03-01T03:40:50;-2.21;74.86
65291;SHT30;51893;59.754;10.110;2023-03-01T03:43:30;-2.21;74.82
65291;SHT30;51893;59.754;10.110;2023-03-01T03:46:01;-2.16;74.83
65291;SHT30;51893;59.754;10.110;2023-03-01T03:48:34;-2.14;74.86
65291;SHT30;51893;59.754;10.110;2023-03-01T03:51:06;-2.11;74.82
65291;SHT30;51893;59.754;10.110;2023-03-01T03:53:38;-2.11;74.73
65291;SHT30;51893;59.754;10.110;2023-03-01T03:56:07;-2.16;74.79
65291;SHT30;51893;59.754;10.110;2023-03-01T03:58:36;-2.16;74.80
65291;SHT30;51893;59.754;10.110;2023-03-01T04:01:05;-2.18;74.84
65291;SHT30;51893;59.754;10.110;2023-03-01T04:03:33;-2.22;74.98
65291;SHT30;51893;59.754;10.110;2023-03-01T04:06:02;-2.22;74.92
65291;SHT30;51893;59.754;10.110;2023-03-01T04:08:32;-2.27;75.10
65291;SHT30;51893;59.754;10.110;2023-03-01T04:11:00;-2.32;75.11
65291;SHT30;51893;59.754;10.110;2023-03-01T04:13:51;-2.32;75.20
65291;SHT30;51893;59.754;10.110;2023-03-01T04:16:24;-2.24;75.04
65291;SHT30;51893;59.754;10.110;2023-03-01T04:18:53;-2.21;75.01
65291;SHT30;51893;59.754;10.110;2023-03-01T04:21:21;-2.21;74.92
65291;SHT30;51893;59.754;10.110;2023-03-01T04:23:49;-2.27;74.96
65291;SHT30;51893;59.754;10.110;2023-03-01T04:26:20;-2.26;75.02
65291;SHT30;51893;59.754;10.110;2023-03-01T04:28:49;-2.29;75.17
65291;SHT30;51893;59.754;10.110;2023-03-01T04:31:18;-2.27;75.10
65291;SHT30;51893;59.754;10.110;2023-03-01T04:33:50;-2.26;75.00
65291;SHT30;51893;59.754;10.110;2023-03-01T04:36:22;-2.29;75.04
65291;SHT30;51893;59.754;10.110;2023-03-01T04:38:54;-2.36;75.15
65291;SHT30;51893;59.754;10.110;2023-03-01T04:41:24;-2.37;75.15
65291;SHT30;51893;59.754;10.110;2023-03-01T04:43:53;-2.35;75.09
65291;SHT30;51893;59.754;10.110;2023-03-01T04:46:21;-2.30;75.03
65291;SHT30;51893;59.754;10.110;2023-03-01T04:48:50;-2.31;75.01
65291;SHT30;51893;59.754;10.110;2023-03-01T04:51:18;-2.34;75.04
65291;SHT30;51893;59.754;10.110;2023-03-01T04:53:46;-2.36;75.06
65291;SHT30;51893;59.754;10.110;2023-03-01T04:56:15;-2.40;75.07
65291;SHT30;51893;59.754;10.110;2023-03-01T04:58:45;-2.49;75.20
65291;SHT30;51893;59.754;10.110;2023-03-01T05:01:15;-2.54;75.31
65291;SHT30;51893;59.754;10.110;2023-03-01T05:03:47;-2.56;75.47
65291;SHT30;51893;59.754;10.110;2023-03-01T05:06:18;-2.53;75.41
65291;SHT30;51893;59.754;10.110;2023-03-01T05:08:48;-2.54;75.25
65291;SHT30;51893;59.754;10.110;2023-03-01T05:11:19;-2.58;75.20
65291;SHT30;51893;59.754;10.110;2023-03-01T05:13:47;-2.59;75.20
65291;SHT30;51893;59.754;10.110;2023-03-01T05:16:17;-2.63;75.18
65291;SHT30;51893;59.754;10.110;2023-03-01T05:18:47;-2.69;75.24
65291;SHT30;51893;59.754;10.110;2023-03-01T05:21:15;-2.73;75.39
65291;SHT30;51893;59.754;10.110;2023-03-01T05:23:44;-2.73;75.50
65291;SHT30;51893;59.754;10.110;2023-03-01T05:26:17;-2.68;75.39
65291;SHT30;51893;59.754;10.110;2023-03-01T05:28:57;-2.64;75.25
65291;SHT30;51893;59.754;10.110;2023-03-01T05:31:27;-2.63;75.19
65291;SHT30;51893;59.754;10.110;2023-03-01T05:33:56;-2.59;75.23
65291;SHT30;51893;59.754;10.110;2023-03-01T05:36:24;-2.59;75.11
65291;SHT30;51893;59.754;10.110;2023-03-01T05:38:53;-2.58;75.13
65291;SHT30;51893;59.754;10.110;2023-03-01T05:41:23;-2.59;75.20
65291;SHT30;51893;59.754;10.110;2023-03-01T05:43:51;-2.59;75.10
65291;SHT30;51893;59.754;10.110;2023-03-01T05:46:20;-2.57;75.06
65291;SHT30;51893;59.754;10.110;2023-03-01T05:48:48;-2.58;75.11
65291;SHT30;51893;59.754;10.110;2023-03-01T05:51:15;-2.63;75.34
65291;SHT30;51893;59.754;10.110;2023-03-01T05:53:44;-2.62;75.43
65291;SHT30;51893;59.754;10.110;2023-03-01T05:56:14;-2.68;75.51
65291;SHT30;51893;59.754;10.110;2023-03-01T05:58:41;-2.75;75.62
65291;SHT30;51893;59.754;10.110;2023-03-01T06:01:12;-2.72;75.58
65291;SHT30;51893;59.754;10.110;2023-03-01T06:03:43;-2.69;75.42
65291;SHT30;51893;59.754;10.110;2023-03-01T06:06:11;-2.67;75.47
65291;SHT30;51893;59.754;10.110;2023-03-01T06:08:39;-2.66;75.51
65291;SHT30;51893;59.754;10.110;2023-03-01T06:11:10;-2.65;75.45
65291;SHT30;51893;59.754;10.110;2023-03-01T06:13:37;-2.67;75.49
65291;SHT30;51893;59.754;10.110;2023-03-01T06:16:06;-2.69;75.46
65291;SHT30;51893;59.754;10.110;2023-03-01T06:18:35;-2.73;75.48
65291;SHT30;51893;59.754;10.110;2023-03-01T06:21:05;-2.80;75.60
65291;SHT30;51893;59.754;10.110;2023-03-01T06:23:39;-2.87;75.75
65291;SHT30;51893;59.754;10.110;2023-03-01T06:26:08;-2.89;75.86
65291;SHT30;51893;59.754;10.110;2023-03-01T06:28:36;-2.91;75.84
65291;SHT30;51893;59.754;10.110;2023-03-01T06:31:04;-2.95;75.89
65291;SHT30;51893;59.754;10.110;2023-03-01T06:33:36;-2.97;75.92
65291;SHT30;51893;59.754;10.110;2023-03-01T06:36:04;-2.96;76.06
65291;SHT30;51893;59.754;10.110;2023-03-01T06:38:34;-2.90;76.05
65291;SHT30;51893;59.754;10.110;2023-03-01T06:41:01;-2.79;75.89
65291;SHT30;51893;59.754;10.110;2023-03-01T06:43:31;-2.72;75.69
65291;SHT30;51893;59.754;10.110;2023-03-01T06:46:03;-2.66;75.55
65291;SHT30;51893;59.754;10.110;2023-03-01T06:48:34;-2.58;75.43
65291;SHT30;51893;59.754;10.110;2023-03-01T06:51:03;-2.53;75.22
65291;SHT30;51893;59.754;10.110;2023-03-01T06:53:33;-2.49;75.13
65291;SHT30;51893;59.754;10.110;2023-03-01T06:56:00;-2.45;75.02
65291;SHT30;51893;59.754;10.110;2023-03-01T06:58:28;-2.43;75.00
65291;SHT30;51893;59.754;10.110;2023-03-01T07:00:57;-2.40;74.90
65291;SHT30;51893;59.754;10.110;2023-03-01T07:03:25;-2.41;74.87
65291;SHT30;51893;59.754;10.110;2023-03-01T07:05:52;-2.41;74.91
65291;SHT30;51893;59.754;10.110;2023-03-01T07:08:20;-2.41;74.90
65291;SHT30;51893;59.754;10.110;2023-03-01T07:10:56;-2.44;74.95
65291;SHT30;51893;59.754;10.110;2023-03-01T07:13:25;-2.49;75.04
65291;SHT30;51893;59.754;10.110;2023-03-01T07:15:53;-2.47;75.09
65291;SHT30;51893;59.754;10.110;2023-03-01T07:18:21;-2.44;75.10
65291;SHT30;51893;59.754;10.110;2023-03-01T07:20:49;-2.40;75.04
65291;SHT30;51893;59.754;10.110;2023-03-01T07:23:17;-2.33;74.93
65291;SHT30;51893;59.754;10.110;2023-03-01T07:25:50;-2.29;74.85
65291;SHT30;51893;59.754;10.110;2023-03-01T07:28:25;-2.25;74.75
65291;SHT30;51893;59.754;10.110;2023-03-01T07:30:54;-2.23;74.65
65291;SHT30;51893;59.754;10.110;2023-03-01T07:33:27;-2.20;74.60
65291;SHT30;51893;59.754;10.110;2023-03-01T07:36:00;-2.18;74.55
65291;SHT30;51893;59.754;10.110;2023-03-01T07:38:31;-2.19;74.40
65291;SHT30;51893;59.754;10.110;2023-03-01T07:40:59;-2.19;74.42
65291;SHT30;51893;59.754;10.110;2023-03-01T07:43:29;-2.20;74.40
65291;SHT30;51893;59.754;10.110;2023-03-01T07:45:59;-2.20;74.40
65291;SHT30;51893;59.754;10.110;2023-03-01T07:48:28;-2.18;74.32
65291;SHT30;51893;59.754;10.110;2023-03-01T07:50:58;-2.18;74.22
65291;SHT30;51893;59.754;10.110;2023-03-01T07:53:27;-2.15;74.25
65291;SHT30;51893;59.754;10.110;2023-03-01T07:58:34;-2.02;74.12
65291;SHT30;51893;59.754;10.110;2023-03-01T08:01:06;-1.96;73.90
65291;SHT30;51893;59.754;10.110;2023-03-01T08:03:37;-1.94;73.69
65291;SHT30;51893;59.754;10.110;2023-03-01T08:06:07;-1.92;73.59
65291;SHT30;51893;59.754;10.110;2023-03-01T08:08:37;-1.89;73.47
65291;SHT30;51893;59.754;10.110;2023-03-01T08:11:06;-1.83;73.38
65291;SHT30;51893;59.754;10.110;2023-03-01T08:13:39;-1.74;73.20
65291;SHT30;51893;59.754;10.110;2023-03-01T08:16:12;-1.68;72.92
65291;SHT30;51893;59.754;10.110;2023-03-01T08:18:43;-1.63;72.80
65291;SHT30;51893;59.754;10.110;2023-03-01T08:21:15;-1.56;72.62
65291;SHT30;51893;59.754;10.110;2023-03-01T08:23:46;-1.49;72.48
65291;SHT30;51893;59.754;10.110;2023-03-01T08:26:15;-1.40;72.44
65291;SHT30;51893;59.754;10.110;2023-03-01T08:28:47;-1.33;72.23
65291;SHT30;51893;59.754;10.110;2023-03-01T08:31:25;-1.31;71.98
65291;SHT30;51893;59.754;10.110;2023-03-01T08:33:59;-1.26;71.83
65291;SHT30;51893;59.754;10.110;2023-03-01T08:36:30;-1.22;71.80
65291;SHT30;51893;59.754;10.110;2023-03-01T08:39:02;-1.15;71.65
65291;SHT30;51893;59.754;10.110;2023-03-01T08:41:32;-1.10;71.50
65291;SHT30;51893;59.754;10.110;2023-03-01T08:44:00;-1.01;71.38
65291;SHT30;51893;59.754;10.110;2023-03-01T08:46:31;-0.91;71.20
65291;SHT30;51893;59.754;10.110;2023-03-01T08:49:04;-0.84;70.93
65291;SHT30;51893;59.754;10.110;2023-03-01T08:51:38;-0.84;70.54
65291;SHT30;51893;59.754;10.110;2023-03-01T08:54:12;-0.84;70.53
65291;SHT30;51893;59.754;10.110;2023-03-01T08:56:45;-0.86;70.50
65291;SHT30;51893;59.754;10.110;2023-03-01T08:59:16;-0.83;70.49
65291;SHT30;51893;59.754;10.110;2023-03-01T09:01:47;-0.81;70.38
65291;SHT30;51893;59.754;10.110;2023-03-01T09:04:16;-0.77;70.27
65291;SHT30;51893;59.754;10.110;2023-03-01T09:06:45;-0.70;70.16
65291;SHT30;51893;59.754;10.110;2023-03-01T09:09:14;-0.61;70.05
65291;SHT30;51893;59.754;10.110;2023-03-01T09:11:46;-0.52;69.91
65291;SHT30;51893;59.754;10.110;2023-03-01T09:14:15;-0.45;69.76
65291;SHT30;51893;59.754;10.110;2023-03-01T09:16:45;-0.34;69.74
65291;SHT30;51893;59.754;10.110;2023-03-01T09:19:16;-0.22;69.43
65291;SHT30;51893;59.754;10.110;2023-03-01T09:21:44;-0.12;69.29
65291;SHT30;51893;59.754;10.110;2023-03-01T09:24:21;-0.06;68.87
65291;SHT30;51893;59.754;10.110;2023-03-01T09:26:53;0.03;68.81
65291;SHT30;51893;59.754;10.110;2023-03-01T09:29:25;0.07;68.66
65291;SHT30;51893;59.754;10.110;2023-03-01T09:31:53;0.13;68.55
65291;SHT30;51893;59.754;10.110;2023-03-01T09:34:23;0.20;68.45
65291;SHT30;51893;59.754;10.110;2023-03-01T09:36:51;0.28;68.25
65291;SHT30;51893;59.754;10.110;2023-03-01T09:39:19;0.33;68.16
65291;SHT30;51893;59.754;10.110;2023-03-01T09:41:57;0.39;67.98
65291;SHT30;51893;59.754;10.110;2023-03-01T09:44:32;0.44;67.70
65291;SHT30;51893;59.754;10.110;2023-03-01T09:47:19;0.55;67.67
65291;SHT30;51893;59.754;10.110;2023-03-01T09:52:40;0.73;67.10
65291;SHT30;51893;59.754;10.110;2023-03-01T09:55:26;0.80;66.84
65291;SHT30;51893;59.754;10.110;2023-03-01T09:58:16;0.87;66.70
65291;SHT30;51893;59.754;10.110;2023-03-01T10:10:07;1.27;65.94
65291;SHT30;51893;59.754;10.110;2023-03-01T10:12:45;1.39;65.65
65291;SHT30;51893;59.754;10.110;2023-03-01T10:15:20;1.53;65.43
65291;SHT30;51893;59.754;10.110;2023-03-01T10:18:06;1.60;65.04
65291;SHT30;51893;59.754;10.110;2023-03-01T10:20:58;1.64;64.84
65291;SHT30;51893;59.754;10.110;2023-03-01T10:23:39;1.68;64.49
65291;SHT30;51893;59.754;10.110;2023-03-01T10:31:46;1.80;63.78
65291;SHT30;51893;59.754;10.110;2023-03-01T10:34:19;1.85;63.59
65291;SHT30;51893;59.754;10.110;2023-03-01T10:37:01;1.89;63.51
65291;SHT30;51893;59.754;10.110;2023-03-01T10:40:00;1.97;63.32
65291;SHT30;51893;59.754;10.110;2023-03-01T10:42:46;2.06;63.29
65291;SHT30;51893;59.754;10.110;2023-03-01T10:50:35;2.32;62.48
65291;SHT30;51893;59.754;10.110;2023-03-01T10:53:17;2.40;62.44
65291;SHT30;51893;59.754;10.110;2023-03-01T10:56:00;2.53;62.62
65291;SHT30;51893;59.754;10.110;2023-03-01T10:58:56;2.68;62.28
65291;SHT30;51893;59.754;10.110;2023-03-01T11:01:37;2.84;62.24
65291;SHT30;51893;59.754;10.110;2023-03-01T11:06:33;3.20;61.72
65291;SHT30;51893;59.754;10.110;2023-03-01T11:09:13;3.36;61.32
65291;SHT30;51893;59.754;10.110;2023-03-01T11:11:55;3.55;61.07
65291;SHT30;51893;59.754;10.110;2023-03-01T11:14:30;3.70;60.61
65291;SHT30;51893;59.754;10.110;2023-03-01T11:17:28;3.87;60.73
65291;SHT30;51893;59.754;10.110;2023-03-01T11:20:35;3.97;59.82
65291;SHT30;51893;59.754;10.110;2023-03-01T11:23:13;4.03;59.33
65291;SHT30;51893;59.754;10.110;2023-03-01T11:25:43;4.06;58.81
65291;SHT30;51893;59.754;10.110;2023-03-01T11:28:22;4.18;59.09
65291;SHT30;51893;59.754;10.110;2023-03-01T11:31:06;4.29;58.83
65291;SHT30;51893;59.754;10.110;2023-03-01T11:42:54;4.55;57.33
65291;SHT30;51893;59.754;10.110;2023-03-01T11:45:56;4.60;57.16
65291;SHT30;51893;59.754;10.110;2023-03-01T11:52:13;4.78;57.17
65291;SHT30;51893;59.754;10.110;2023-03-01T12:01:19;5.07;55.97
65291;SHT30;51893;59.754;10.110;2023-03-01T12:10:19;5.18;55.37
65291;SHT30;51893;59.754;10.110;2023-03-01T12:16:16;5.52;55.53
65291;SHT30;51893;59.754;10.110;2023-03-01T12:22:49;5.90;54.80
65291;SHT30;51893;59.754;10.110;2023-03-01T12:32:00;6.36;54.36
65291;SHT30;51893;59.754;10.110;2023-03-01T12:37:36;6.44;54.17
65291;SHT30;51893;59.754;10.110;2023-03-01T12:50:19;6.41;53.43
65291;SHT30;51893;59.754;10.110;2023-03-01T12:52:54;6.43;53.27
65291;SHT30;51893;59.754;10.110;2023-03-01T13:01:10;6.55;53.19
65291;SHT30;51893;59.754;10.110;2023-03-01T13:06:52;6.48;53.47
65291;SHT30;51893;59.754;10.110;2023-03-01T13:12:45;6.47;53.96
65291;SHT30;51893;59.754;10.110;2023-03-01T13:15:26;6.62;54.16
65291;SHT30;51893;59.754;10.110;2023-03-01T13:18:00;6.70;54.18
65291;SHT30;51893;59.754;10.110;2023-03-01T13:20:56;6.69;53.66
65291;SHT30;51893;59.754;10.110;2023-03-01T13:23:30;6.52;53.44
65291;SHT30;51893;59.754;10.110;2023-03-01T13:26:04;6.38;53.42
65291;SHT30;51893;59.754;10.110;2023-03-01T13:28:53;6.27;53.78
65291;SHT30;51893;59.754;10.110;2023-03-01T13:39:39;6.10;54.74
65291;SHT30;51893;59.754;10.110;2023-03-01T13:45:17;5.93;54.96
65291;SHT30;51893;59.754;10.110;2023-03-01T13:48:08;5.82;55.04
65291;SHT30;51893;59.754;10.110;2023-03-01T13:51:01;5.79;55.44
65291;SHT30;51893;59.754;10.110;2023-03-01T13:53:43;5.80;55.39
65291;SHT30;51893;59.754;10.110;2023-03-01T13:56:18;5.74;55.48
65291;SHT30;51893;59.754;10.110;2023-03-01T14:01:33;5.78;56.00
65291;SHT30;51893;59.754;10.110;2023-03-01T14:04:24;5.79;55.85
65291;SHT30;51893;59.754;10.110;2023-03-01T14:07:12;5.82;55.68
65291;SHT30;51893;59.754;10.110;2023-03-01T14:09:47;5.86;56.48
65291;SHT30;51893;59.754;10.110;2023-03-01T14:15:43;5.79;55.59
65291;SHT30;51893;59.754;10.110;2023-03-01T14:19:18;5.75;55.51
65291;SHT30;51893;59.754;10.110;2023-03-01T14:24:52;5.75;55.81
65291;SHT30;51893;59.754;10.110;2023-03-01T14:27:35;5.78;55.90
65291;SHT30;51893;59.754;10.110;2023-03-01T14:30:14;5.79;55.93
65291;SHT30;51893;59.754;10.110;2023-03-01T14:32:53;5.82;55.97
65291;SHT30;51893;59.754;10.110;2023-03-01T14:35:26;5.82;56.89
65291;SHT30;51893;59.754;10.110;2023-03-01T14:37:58;5.78;57.33
65291;SHT30;51893;59.754;10.110;2023-03-01T14:42:59;5.77;57.08
65291;SHT30;51893;59.754;10.110;2023-03-01T14:45:35;5.78;56.61
65291;SHT30;51893;59.754;10.110;2023-03-01T14:48:04;5.83;56.65
65291;SHT30;51893;59.754;10.110;2023-03-01T14:50:35;5.84;57.04
65291;SHT30;51893;59.754;10.110;2023-03-01T14:53:29;5.86;57.50
65291;SHT30;51893;59.754;10.110;2023-03-01T14:56:14;5.86;57.96
65291;SHT30;51893;59.754;10.110;2023-03-01T14:58:51;5.88;58.04
65291;SHT30;51893;59.754;10.110;2023-03-01T15:01:26;5.88;57.55
65291;SHT30;51893;59.754;10.110;2023-03-01T15:03:58;5.88;57.32
65291;SHT30;51893;59.754;10.110;2023-03-01T15:06:28;5.81;57.95
65291;SHT30;51893;59.754;10.110;2023-03-01T15:08:57;5.66;58.12
65291;SHT30;51893;59.754;10.110;2023-03-01T15:11:29;5.51;58.64
65291;SHT30;51893;59.754;10.110;2023-03-01T15:14:00;5.46;59.14
65291;SHT30;51893;59.754;10.110;2023-03-01T15:16:32;5.36;59.73
65291;SHT30;51893;59.754;10.110;2023-03-01T15:19:06;5.28;60.18
65291;SHT30;51893;59.754;10.110;2023-03-01T15:21:38;5.28;60.16
65291;SHT30;51893;59.754;10.110;2023-03-01T15:29:24;5.42;58.14
65291;SHT30;51893;59.754;10.110;2023-03-01T15:31:59;5.44;57.91
65291;SHT30;51893;59.754;10.110;2023-03-01T15:34:50;5.52;57.51
65291;SHT30;51893;59.754;10.110;2023-03-01T15:40:23;5.41;59.64
65291;SHT30;51893;59.754;10.110;2023-03-01T15:43:01;5.19;59.87
65291;SHT30;51893;59.754;10.110;2023-03-01T15:45:33;5.07;60.31
65291;SHT30;51893;59.754;10.110;2023-03-01T15:48:02;5.00;60.26
65291;SHT30;51893;59.754;10.110;2023-03-01T15:50:58;4.92;60.65
65291;SHT30;51893;59.754;10.110;2023-03-01T15:53:28;4.89;61.04
65291;SHT30;51893;59.754;10.110;2023-03-01T15:55:57;4.79;61.09
65291;SHT30;51893;59.754;10.110;2023-03-01T15:58:25;4.66;61.40
65291;SHT30;51893;59.754;10.110;2023-03-01T16:00:53;4.60;61.45
65291;SHT30;51893;59.754;10.110;2023-03-01T16:03:28;4.62;61.58
65291;SHT30;51893;59.754;10.110;2023-03-01T16:05:57;4.64;61.62
65291;SHT30;51893;59.754;10.110;2023-03-01T16:08:25;4.62;61.63
65291;SHT30;51893;59.754;10.110;2023-03-01T16:10:53;4.50;61.79
65291;SHT30;51893;59.754;10.110;2023-03-01T16:13:22;4.40;62.20
65291;SHT30;51893;59.754;10.110;2023-03-01T16:15:50;4.36;62.49
65291;SHT30;51893;59.754;10.110;2023-03-01T16:18:18;4.30;62.54
65291;SHT30;51893;59.754;10.110;2023-03-01T16:20:47;4.26;62.66
65291;SHT30;51893;59.754;10.110;2023-03-01T16:23:16;4.25;62.40
65291;SHT30;51893;59.754;10.110;2023-03-01T16:25:44;4.28;62.04
65291;SHT30;51893;59.754;10.110;2023-03-01T16:28:13;4.18;62.58
65291;SHT30;51893;59.754;10.110;2023-03-01T16:30:49;3.93;63.87
65291;SHT30;51893;59.754;10.110;2023-03-01T16:33:19;3.70;64.77
65291;SHT30;51893;59.754;10.110;2023-03-01T16:36:01;3.56;64.95
65291;SHT30;51893;59.754;10.110;2023-03-01T16:38:36;3.50;64.56
65291;SHT30;51893;59.754;10.110;2023-03-01T16:41:06;3.43;64.60
65291;SHT30;51893;59.754;10.110;2023-03-01T16:43:42;3.35;64.82
65291;SHT30;51893;59.754;10.110;2023-03-01T16:46:15;3.31;64.99
65291;SHT30;51893;59.754;10.110;2023-03-01T16:48:48;3.37;64.95
65291;SHT30;51893;59.754;10.110;2023-03-01T16:51:16;3.41;64.73
65291;SHT30;51893;59.754;10.110;2023-03-01T16:53:44;3.40;64.48
65291;SHT30;51893;59.754;10.110;2023-03-01T16:56:18;3.56;63.72
65291;SHT30;51893;59.754;10.110;2023-03-01T16:58:47;3.74;62.91
65291;SHT30;51893;59.754;10.110;2023-03-01T17:01:20;3.90;62.23
65291;SHT30;51893;59.754;10.110;2023-03-01T17:03:54;3.95;62.35
65291;SHT30;51893;59.754;10.110;2023-03-01T17:06:22;3.97;62.09
65291;SHT30;51893;59.754;10.110;2023-03-01T17:08:54;3.98;62.17
65291;SHT30;51893;59.754;10.110;2023-03-01T17:11:24;3.95;62.05
65291;SHT30;51893;59.754;10.110;2023-03-01T17:13:52;3.93;62.17
65291;SHT30;51893;59.754;10.110;2023-03-01T17:16:20;3.94;62.24
65291;SHT30;51893;59.754;10.110;2023-03-01T17:18:49;3.97;62.10
65291;SHT30;51893;59.754;10.110;2023-03-01T17:21:17;4.00;61.85
65291;SHT30;51893;59.754;10.110;2023-03-01T17:23:45;4.01;61.69
65291;SHT30;51893;59.754;10.110;2023-03-01T17:26:14;4.00;61.68
65291;SHT30;51893;59.754;10.110;2023-03-01T17:28:44;3.98;61.76
65291;SHT30;51893;59.754;10.110;2023-03-01T17:31:18;4.01;61.54
65291;SHT30;51893;59.754;10.110;2023-03-01T17:33:47;3.99;61.49
65291;SHT30;51893;59.754;10.110;2023-03-01T17:36:24;3.97;61.62
65291;SHT30;51893;59.754;10.110;2023-03-01T17:38:52;3.97;61.53
65291;SHT30;51893;59.754;10.110;2023-03-01T17:41:21;3.94;61.58
65291;SHT30;51893;59.754;10.110;2023-03-01T17:43:51;3.88;61.83
65291;SHT30;51893;59.754;10.110;2023-03-01T17:46:23;3.83;61.91
65291;SHT30;51893;59.754;10.110;2023-03-01T17:48:52;3.82;61.88
65291;SHT30;51893;59.754;10.110;2023-03-01T17:51:27;3.75;61.99
65291;SHT30;51893;59.754;10.110;2023-03-01T17:53:55;3.65;62.15
65291;SHT30;51893;59.754;10.110;2023-03-01T17:56:24;3.57;62.59
65291;SHT30;51893;59.754;10.110;2023-03-01T17:58:54;3.51;62.77
65291;SHT30;51893;59.754;10.110;2023-03-01T18:01:23;3.49;62.86
65291;SHT30;51893;59.754;10.110;2023-03-01T18:03:52;3.43;62.87
65291;SHT30;51893;59.754;10.110;2023-03-01T18:06:24;3.35;62.97
65291;SHT30;51893;59.754;10.110;2023-03-01T18:08:55;3.30;63.12
65291;SHT30;51893;59.754;10.110;2023-03-01T18:11:26;3.26;63.25
65291;SHT30;51893;59.754;10.110;2023-03-01T18:13:54;3.22;63.38
65291;SHT30;51893;59.754;10.110;2023-03-01T18:16:23;3.17;63.43
65291;SHT30;51893;59.754;10.110;2023-03-01T18:18:52;3.08;63.66
65291;SHT30;51893;59.754;10.110;2023-03-01T18:21:22;3.00;63.91